createdAt,value
2019-05-28T00:00:02.084Z,19.69
2019-05-28T00:00:52.779Z,19.63
2019-05-28T00:01:51.328Z,19.69
2019-05-28T00:02:49.900Z,19.74
2019-05-28T00:03:48.567Z,19.8
2019-05-28T00:04:47.252Z,19.71
2019-05-28T00:05:45.994Z,19.77
2019-05-28T00:06:44.626Z,19.73
2019-05-28T00:07:43.179Z,19.59
2019-05-28T00:08:41.727Z,19.54
2019-05-28T00:09:40.370Z,19.39
2019-05-28T00:10:38.912Z,19.33
2019-05-28T00:11:37.459Z,19.28
2019-05-28T00:12:36.015Z,19.25
2019-05-28T00:13:34.741Z,19.33
2019-05-28T00:14:33.288Z,19.37
2019-05-28T00:15:31.860Z,19.48
2019-05-28T00:16:30.635Z,19.51
2019-05-28T00:17:29.191Z,19.51
2019-05-28T00:18:27.759Z,19.61
2019-05-28T00:19:26.513Z,19.46
2019-05-28T00:20:25.061Z,19.48
2019-05-28T00:21:23.594Z,19.59
2019-05-28T00:22:22.227Z,19.44
2019-05-28T00:23:20.743Z,19.47
2019-05-28T00:24:19.415Z,19.4
2019-05-28T00:25:18.058Z,19.43
2019-05-28T00:26:16.687Z,19.51
2019-05-28T00:27:15.237Z,19.43
2019-05-28T00:28:13.861Z,19.61
2019-05-28T00:29:12.496Z,19.58
2019-05-28T00:30:19.589Z,19.62
2019-05-28T00:31:09.620Z,19.63
2019-05-28T00:32:08.276Z,19.69
2019-05-28T00:33:06.949Z,19.8
2019-05-28T00:34:05.522Z,19.74
2019-05-28T00:35:04.168Z,19.84
2019-05-28T00:36:02.838Z,19.77
2019-05-28T00:37:01.417Z,19.69
2019-05-28T00:38:00.087Z,19.73
2019-05-28T00:38:58.818Z,19.73
2019-05-28T00:39:57.384Z,19.68
2019-05-28T00:40:55.918Z,19.66
2019-05-28T00:41:54.445Z,19.66
2019-05-28T00:42:53.105Z,19.62
2019-05-28T00:43:51.693Z,19.66
2019-05-28T00:44:50.319Z,19.73
2019-05-28T00:45:48.864Z,19.65
2019-05-28T00:46:47.458Z,19.66
2019-05-28T00:47:46.293Z,19.71
2019-05-28T00:48:44.962Z,19.71
2019-05-28T00:49:43.538Z,19.58
2019-05-28T00:50:42.155Z,19.63
2019-05-28T00:51:41.061Z,19.59
2019-05-28T00:52:39.600Z,19.5
2019-05-28T00:53:38.385Z,19.37
2019-05-28T00:54:37.007Z,19.25
2019-05-28T00:55:35.593Z,19.4
2019-05-28T00:56:34.146Z,19.37
2019-05-28T00:57:32.798Z,19.36
2019-05-28T00:58:31.368Z,19.4
2019-05-28T00:59:30.009Z,19.37
2019-05-28T01:00:36.754Z,19.36
2019-05-28T01:01:27.162Z,19.37
2019-05-28T01:02:25.714Z,19.32
2019-05-28T01:03:24.520Z,19.16
2019-05-28T01:04:23.077Z,19.14
2019-05-28T01:05:21.689Z,19.22
2019-05-28T01:06:20.259Z,19.18
2019-05-28T01:07:18.814Z,19.14
2019-05-28T01:08:17.415Z,19.19
2019-05-28T01:09:16.093Z,18.99
2019-05-28T01:10:14.759Z,19.07
2019-05-28T01:11:13.285Z,18.82
2019-05-28T01:12:11.862Z,18.91
2019-05-28T01:13:10.574Z,18.82
2019-05-28T01:14:09.267Z,18.87
2019-05-28T01:15:07.825Z,18.84
2019-05-28T01:16:06.424Z,18.95
2019-05-28T01:17:05.005Z,18.98
2019-05-28T01:18:03.559Z,19.04
2019-05-28T01:19:02.119Z,19.07
2019-05-28T01:20:00.803Z,19.13
2019-05-28T01:20:59.350Z,19.16
2019-05-28T01:21:57.939Z,19.14
2019-05-28T01:22:56.631Z,19.31
2019-05-28T01:23:55.188Z,19.1
2019-05-28T01:24:53.855Z,19.18
2019-05-28T01:25:52.500Z,18.85
2019-05-28T01:26:51.054Z,18.98
2019-05-28T01:27:49.587Z,19.07
2019-05-28T01:28:48.199Z,19.07
2019-05-28T01:29:46.752Z,19.06
2019-05-28T01:30:55.895Z,18.99
2019-05-28T01:31:43.998Z,18.99
2019-05-28T01:32:42.933Z,18.8
2019-05-28T01:33:41.486Z,18.73
2019-05-28T01:34:40.135Z,18.69
2019-05-28T01:35:38.832Z,18.66
2019-05-28T01:36:37.366Z,18.52
2019-05-28T01:37:36.132Z,18.62
2019-05-28T01:38:34.964Z,18.62
2019-05-28T01:39:33.522Z,18.6
2019-05-28T01:40:32.228Z,18.57
2019-05-28T01:41:30.899Z,18.6
2019-05-28T01:42:29.555Z,18.54
2019-05-28T01:43:28.200Z,18.44
2019-05-28T01:44:26.905Z,18.42
2019-05-28T01:45:25.534Z,18.42
2019-05-28T01:46:24.214Z,18.36
2019-05-28T01:47:22.795Z,18.42
2019-05-28T01:48:21.383Z,18.45
2019-05-28T01:49:20.071Z,18.45
2019-05-28T01:50:18.692Z,18.54
2019-05-28T01:52:58.918Z,18.58
2019-05-28T01:53:57.514Z,18.78
2019-05-28T01:54:56.257Z,18.75
2019-05-28T01:55:54.856Z,18.65
2019-05-28T01:56:53.459Z,18.73
2019-05-28T01:57:52.031Z,18.72
2019-05-28T01:58:50.598Z,18.63
2019-05-28T01:59:49.169Z,18.57
2019-05-28T02:00:47.948Z,18.66
2019-05-28T02:01:46.740Z,18.72
2019-05-28T02:02:45.460Z,18.72
2019-05-28T02:03:44.094Z,18.75
2019-05-28T02:04:42.720Z,18.8
2019-05-28T02:05:41.278Z,18.81
2019-05-28T02:06:39.846Z,18.67
2019-05-28T02:07:38.477Z,18.67
2019-05-28T02:08:37.028Z,18.73
2019-05-28T02:09:35.573Z,18.78
2019-05-28T02:21:30.040Z,18.75
2019-05-28T02:22:28.644Z,18.63
2019-05-28T02:23:27.221Z,18.63
2019-05-28T02:24:25.803Z,18.5
2019-05-28T02:25:24.539Z,18.45
2019-05-28T02:26:23.177Z,18.42
2019-05-28T02:27:21.907Z,18.44
2019-05-28T02:28:20.640Z,18.44
2019-05-28T02:29:19.242Z,18.11
2019-05-28T02:30:17.837Z,18.11
2019-05-28T02:31:27.143Z,17.99
2019-05-28T02:32:14.932Z,17.92
2019-05-28T02:33:13.525Z,18
2019-05-28T02:34:12.225Z,18.03
2019-05-28T02:35:11.064Z,18.03
2019-05-28T02:36:09.635Z,18.05
2019-05-28T02:37:08.224Z,17.96
2019-05-28T02:38:06.819Z,17.92
2019-05-28T02:39:05.351Z,17.99
2019-05-28T02:40:03.913Z,17.97
2019-05-28T02:41:02.471Z,17.97
2019-05-28T02:42:01.020Z,18.1
2019-05-28T02:42:59.589Z,18.1
2019-05-28T02:43:58.349Z,18.07
2019-05-28T02:44:57.122Z,18.07
2019-05-28T02:45:55.670Z,18.15
2019-05-28T02:46:54.267Z,18.33
2019-05-28T02:47:53.240Z,18.26
2019-05-28T02:48:51.813Z,18.25
2019-05-28T02:49:50.405Z,18.3
2019-05-28T02:50:49.186Z,18.21
2019-05-28T02:51:47.845Z,18.23
2019-05-28T02:52:46.613Z,18.3
2019-05-28T02:53:45.181Z,18.23
2019-05-28T02:54:43.876Z,18.33
2019-05-28T02:55:42.518Z,18.27
2019-05-28T02:56:41.118Z,18.18
2019-05-28T02:57:39.681Z,18.25
2019-05-28T02:58:38.412Z,18.23
2019-05-28T02:59:37.003Z,18.29
2019-05-28T03:00:35.593Z,18.25
2019-05-28T03:01:43.267Z,18.1
2019-05-28T03:02:32.772Z,18.02
2019-05-28T03:03:31.357Z,17.99
2019-05-28T03:04:30.115Z,18.02
2019-05-28T03:08:08.981Z,18.08
2019-05-28T03:09:07.506Z,18.14
2019-05-28T03:10:06.208Z,17.96
2019-05-28T03:11:04.946Z,17.9
2019-05-28T03:12:03.363Z,17.95
2019-05-28T03:13:01.920Z,17.79
2019-05-28T03:14:00.634Z,17.84
2019-05-28T03:22:47.861Z,17.92
2019-05-28T03:23:46.491Z,17.82
2019-05-28T03:24:45.051Z,17.87
2019-05-28T03:25:43.656Z,17.75
2019-05-28T03:28:08.639Z,17.63
2019-05-28T03:29:07.185Z,17.66
2019-05-28T03:30:05.799Z,17.59
2019-05-28T03:31:04.468Z,17.56
2019-05-28T03:32:07.507Z,17.59
2019-05-28T03:33:01.625Z,17.66
2019-05-28T03:34:00.182Z,17.64
2019-05-28T03:34:58.804Z,17.64
2019-05-28T03:35:57.355Z,17.66
2019-05-28T03:36:55.906Z,17.58
2019-05-28T03:37:54.709Z,17.62
2019-05-28T03:38:53.320Z,17.64
2019-05-28T03:39:51.859Z,17.71
2019-05-28T03:40:50.500Z,17.71
2019-05-28T03:41:49.058Z,17.89
2019-05-28T03:42:47.689Z,17.92
2019-05-28T03:43:46.209Z,17.87
2019-05-28T03:44:44.767Z,17.92
2019-05-28T03:45:43.308Z,17.72
2019-05-28T03:46:41.853Z,17.71
2019-05-28T03:47:40.492Z,17.75
2019-05-28T03:48:39.040Z,17.62
2019-05-28T03:49:37.605Z,17.59
2019-05-28T03:50:36.188Z,17.63
2019-05-28T03:51:34.857Z,17.56
2019-05-28T03:52:33.414Z,17.58
2019-05-28T03:53:32.168Z,17.56
2019-05-28T03:54:30.814Z,17.52
2019-05-28T03:55:29.352Z,17.59
2019-05-28T03:56:28.218Z,17.51
2019-05-28T03:57:26.901Z,17.52
2019-05-28T03:58:25.472Z,17.51
2019-05-28T03:59:24.313Z,17.56
2019-05-28T04:00:22.883Z,17.41
2019-05-28T04:01:21.459Z,17.51
2019-05-28T04:02:23.393Z,17.56
2019-05-28T04:03:18.752Z,17.63
2019-05-28T04:04:17.325Z,17.55
2019-05-28T04:05:15.897Z,17.56
2019-05-28T04:06:14.804Z,17.68
2019-05-28T04:07:13.420Z,17.64
2019-05-28T04:09:53.546Z,17.71
2019-05-28T04:10:52.948Z,17.78
2019-05-28T04:11:51.497Z,17.75
2019-05-28T04:12:50.034Z,17.78
2019-05-28T04:13:48.602Z,17.75
2019-05-28T04:14:47.141Z,17.75
2019-05-28T04:15:45.692Z,17.75
2019-05-28T04:16:44.555Z,17.71
2019-05-28T04:17:43.154Z,17.81
2019-05-28T04:18:41.722Z,17.86
2019-05-28T04:19:40.322Z,17.89
2019-05-28T04:20:39.064Z,17.89
2019-05-28T04:21:37.611Z,17.82
2019-05-28T04:22:36.138Z,17.9
2019-05-28T04:24:59.058Z,17.82
2019-05-28T04:25:57.706Z,17.89
2019-05-28T04:26:56.432Z,17.82
2019-05-28T04:27:55.598Z,17.89
2019-05-28T04:28:54.354Z,17.87
2019-05-28T04:29:52.994Z,17.82
2019-05-28T04:30:51.547Z,17.9
2019-05-28T04:31:50.129Z,17.87
2019-05-28T04:32:48.740Z,17.99
2019-05-28T04:33:47.291Z,17.93
2019-05-28T04:34:45.902Z,17.71
2019-05-28T04:35:44.578Z,17.7
2019-05-28T04:36:43.251Z,17.66
2019-05-28T04:37:41.900Z,17.74
2019-05-28T04:38:40.523Z,17.78
2019-05-28T04:39:39.950Z,17.89
2019-05-28T04:40:37.693Z,17.75
2019-05-28T04:41:36.284Z,17.78
2019-05-28T04:42:34.894Z,17.68
2019-05-28T04:43:33.479Z,17.71
2019-05-28T04:44:32.164Z,17.62
2019-05-28T04:45:30.988Z,17.71
2019-05-28T04:46:29.659Z,17.78
2019-05-28T04:47:28.227Z,17.75
2019-05-28T04:48:26.899Z,17.9
2019-05-28T04:49:25.444Z,17.79
2019-05-28T04:50:24.017Z,17.9
2019-05-28T04:51:22.643Z,18
2019-05-28T04:52:21.299Z,17.92
2019-05-28T04:53:19.860Z,17.99
2019-05-28T04:54:18.768Z,17.82
2019-05-28T04:55:17.343Z,18
2019-05-28T04:56:15.914Z,17.97
2019-05-28T04:57:14.653Z,17.92
2019-05-28T04:58:13.323Z,17.86
2019-05-28T04:59:11.838Z,17.89
2019-05-28T05:00:10.745Z,17.71
2019-05-28T05:01:09.292Z,17.7
2019-05-28T05:02:07.890Z,17.72
2019-05-28T05:03:06.607Z,17.74
2019-05-28T05:04:05.193Z,17.71
2019-05-28T05:05:03.761Z,17.59
2019-05-28T05:06:02.457Z,17.56
2019-05-28T05:07:01.188Z,17.62
2019-05-28T05:07:59.685Z,17.7
2019-05-28T05:08:58.336Z,17.79
2019-05-28T05:09:56.929Z,17.72
2019-05-28T05:10:55.473Z,17.75
2019-05-28T05:11:54.046Z,17.86
2019-05-28T05:12:52.661Z,18
2019-05-28T05:13:51.219Z,17.99
2019-05-28T05:14:49.762Z,17.95
2019-05-28T05:15:48.337Z,18.02
2019-05-28T05:16:46.910Z,17.99
2019-05-28T05:17:45.477Z,18.12
2019-05-28T05:18:44.076Z,18.02
2019-05-28T05:19:42.792Z,18.14
2019-05-28T05:20:41.349Z,17.93
2019-05-28T05:21:39.990Z,18.1
2019-05-28T05:22:38.719Z,18.08
2019-05-28T05:23:37.319Z,17.99
2019-05-28T05:24:35.867Z,17.97
2019-05-28T05:25:34.594Z,18
2019-05-28T05:26:33.157Z,17.89
2019-05-28T05:27:31.715Z,17.97
2019-05-28T05:28:30.417Z,18.1
2019-05-28T05:29:29.129Z,18.08
2019-05-28T05:30:27.684Z,18.17
2019-05-28T05:31:26.277Z,18.33
2019-05-28T05:32:27.713Z,18.33
2019-05-28T05:33:23.574Z,18.26
2019-05-28T05:34:22.196Z,18.47
2019-05-28T05:35:21.015Z,18.41
2019-05-28T05:36:19.585Z,18.45
2019-05-28T05:37:18.153Z,18.27
2019-05-28T05:38:16.837Z,18.27
2019-05-28T05:39:15.412Z,18.25
2019-05-28T05:40:14.011Z,18.27
2019-05-28T05:41:12.608Z,18.39
2019-05-28T05:42:11.202Z,18.29
2019-05-28T05:43:09.747Z,18.39
2019-05-28T05:44:08.293Z,18.33
2019-05-28T05:45:07.862Z,18.37
2019-05-28T05:46:05.868Z,18.36
2019-05-28T05:47:04.605Z,18.33
2019-05-28T05:48:03.187Z,18.3
2019-05-28T05:49:01.753Z,18.44
2019-05-28T05:50:00.386Z,18.58
2019-05-28T05:50:59.028Z,18.63
2019-05-28T05:51:57.613Z,18.58
2019-05-28T05:52:57.012Z,18.63
2019-05-28T05:53:55.576Z,18.69
2019-05-28T05:54:54.346Z,18.76
2019-05-28T05:55:53.031Z,18.75
2019-05-28T05:56:51.595Z,18.73
2019-05-28T05:57:50.284Z,18.91
2019-05-28T05:58:49.000Z,18.92
2019-05-28T05:59:47.573Z,18.87
2019-05-28T06:00:46.128Z,18.85
2019-05-28T06:01:44.763Z,18.92
2019-05-28T06:02:43.335Z,19.22
2019-05-28T06:05:23.594Z,19.11
2019-05-28T06:07:08.192Z,19.46
2019-05-28T06:08:07.001Z,19.44
2019-05-28T06:09:05.506Z,19.63
2019-05-28T06:10:04.253Z,19.8
2019-05-28T06:11:03.318Z,19.86
2019-05-28T06:12:02.128Z,19.91
2019-05-28T06:13:00.910Z,20.13
2019-05-28T06:13:59.441Z,20.06
2019-05-28T06:14:58.115Z,19.83
2019-05-28T06:15:56.723Z,19.96
2019-05-28T06:16:55.334Z,19.92
2019-05-28T06:17:53.901Z,19.86
2019-05-28T06:18:52.514Z,19.8
2019-05-28T06:19:51.096Z,19.92
2019-05-28T06:20:49.700Z,19.84
2019-05-28T06:21:48.460Z,19.87
2019-05-28T06:22:47.118Z,20.17
2019-05-28T06:23:45.681Z,19.87
2019-05-28T06:24:44.282Z,19.92
2019-05-28T06:25:42.861Z,20.18
2019-05-28T06:26:41.396Z,20.26
2019-05-28T06:27:39.971Z,20.36
2019-05-28T06:28:38.662Z,20.35
2019-05-28T06:29:37.448Z,20.26
2019-05-28T06:30:36.028Z,20.38
2019-05-28T06:31:34.792Z,20.17
2019-05-28T06:32:35.037Z,20.11
2019-05-28T06:33:32.106Z,20.11
2019-05-28T06:34:30.693Z,19.96
2019-05-28T06:35:29.253Z,20.05
2019-05-28T06:36:27.827Z,19.74
2019-05-28T06:37:26.426Z,19.91
2019-05-28T06:38:25.050Z,19.88
2019-05-28T06:39:23.607Z,19.86
2019-05-28T06:40:22.265Z,19.91
2019-05-28T06:41:20.823Z,19.98
2019-05-28T06:42:19.422Z,19.95
2019-05-28T06:43:18.066Z,19.98
2019-05-28T06:44:16.736Z,19.84
2019-05-28T06:45:15.318Z,19.92
2019-05-28T06:46:13.894Z,20.1
2019-05-28T06:47:12.572Z,20.24
2019-05-28T06:48:11.127Z,20.24
2019-05-28T06:49:09.696Z,19.87
2019-05-28T06:50:08.408Z,20.1
2019-05-28T06:51:06.977Z,20.23
2019-05-28T06:52:05.620Z,20.24
2019-05-28T06:53:04.207Z,20.28
2019-05-28T06:54:02.813Z,20.23
2019-05-28T06:56:43.362Z,20.32
2019-05-28T06:57:41.934Z,20.36
2019-05-28T06:58:40.666Z,20.51
2019-05-28T06:59:39.177Z,20.41
2019-05-28T07:00:37.851Z,20.5
2019-05-28T07:01:36.497Z,20.57
2019-05-28T07:02:35.114Z,20.41
2019-05-28T07:03:33.705Z,20.42
2019-05-28T07:04:33.204Z,20.5
2019-05-28T07:05:30.894Z,20.47
2019-05-28T07:06:29.624Z,20.42
2019-05-28T07:07:28.433Z,20.82
2019-05-28T07:08:27.025Z,20.84
2019-05-28T07:09:25.570Z,21.09
2019-05-28T07:10:24.126Z,21.04
2019-05-28T07:11:22.760Z,20.89
2019-05-28T07:12:21.313Z,20.98
2019-05-28T07:13:19.891Z,21.16
2019-05-28T07:14:18.526Z,21.12
2019-05-28T07:15:17.072Z,21.14
2019-05-28T07:16:15.654Z,21.17
2019-05-28T07:17:14.222Z,21.32
2019-05-28T07:18:12.908Z,21.35
2019-05-28T07:19:23.816Z,21.28
2019-05-28T07:20:10.185Z,21.37
2019-05-28T07:21:08.875Z,21.28
2019-05-28T07:22:07.449Z,21.01
2019-05-28T07:23:06.076Z,21.04
2019-05-28T07:24:05.188Z,20.94
2019-05-28T07:25:03.358Z,20.95
2019-05-28T07:26:01.866Z,21.06
2019-05-28T07:27:00.560Z,21.14
2019-05-28T07:28:10.075Z,21.03
2019-05-28T07:28:57.718Z,21.22
2019-05-28T07:29:56.430Z,21.07
2019-05-28T07:30:55.023Z,21.14
2019-05-28T07:31:53.584Z,21.09
2019-05-28T07:32:52.139Z,21.06
2019-05-28T07:33:50.717Z,21.22
2019-05-28T07:34:49.279Z,21.27
2019-05-28T07:35:47.930Z,21.31
2019-05-28T07:36:46.987Z,21.47
2019-05-28T07:37:45.574Z,21.46
2019-05-28T07:38:44.310Z,21.46
2019-05-28T07:39:43.076Z,21.5
2019-05-28T07:40:41.658Z,21.56
2019-05-28T07:41:40.301Z,21.64
2019-05-28T07:42:39.004Z,21.61
2019-05-28T07:43:37.570Z,21.69
2019-05-28T07:44:36.119Z,21.47
2019-05-28T07:45:34.763Z,21.68
2019-05-28T07:46:33.281Z,21.49
2019-05-28T07:47:31.857Z,21.49
2019-05-28T07:48:30.489Z,21.32
2019-05-28T07:49:29.004Z,21.14
2019-05-28T07:50:27.572Z,21.17
2019-05-28T07:51:26.403Z,21.37
2019-05-28T07:52:25.159Z,21.31
2019-05-28T07:53:38.606Z,21.28
2019-05-28T07:54:22.305Z,21.09
2019-05-28T07:55:20.941Z,21.17
2019-05-28T07:56:19.475Z,21.17
2019-05-28T07:57:18.073Z,21.19
2019-05-28T07:58:16.715Z,21.24
2019-05-28T07:59:15.312Z,21.19
2019-05-28T08:00:13.845Z,21.21
2019-05-28T08:01:12.542Z,21.12
2019-05-28T08:02:11.183Z,21.34
2019-05-28T08:03:09.737Z,21.5
2019-05-28T08:04:08.368Z,21.44
2019-05-28T08:05:07.052Z,21.68
2019-05-28T08:06:05.646Z,21.72
2019-05-28T08:07:04.223Z,21.46
2019-05-28T08:08:02.748Z,21.58
2019-05-28T08:09:01.371Z,21.53
2019-05-28T08:09:59.933Z,21.52
2019-05-28T08:10:58.569Z,21.46
2019-05-28T08:11:57.183Z,21.27
2019-05-28T08:12:55.803Z,21.19
2019-05-28T08:13:54.527Z,21.35
2019-05-28T08:14:53.228Z,21.53
2019-05-28T08:15:51.941Z,21.58
2019-05-28T08:16:52.901Z,21.58
2019-05-28T08:17:49.044Z,21.61
2019-05-28T08:18:47.622Z,21.67
2019-05-28T08:19:46.152Z,21.62
2019-05-28T08:20:44.800Z,21.82
2019-05-28T08:21:43.404Z,21.72
2019-05-28T08:22:43.125Z,21.69
2019-05-28T08:23:40.725Z,21.72
2019-05-28T08:24:39.276Z,21.62
2019-05-28T08:25:46.603Z,21.69
2019-05-28T08:26:36.426Z,21.79
2019-05-28T08:27:35.004Z,21.65
2019-05-28T08:28:33.580Z,21.54
2019-05-28T08:29:32.157Z,21.77
2019-05-28T08:30:30.719Z,21.86
2019-05-28T08:31:29.281Z,22.02
2019-05-28T08:32:27.861Z,21.92
2019-05-28T08:33:26.569Z,22.06
2019-05-28T08:34:25.171Z,22.05
2019-05-28T08:35:23.696Z,21.96
2019-05-28T08:36:22.375Z,22.05
2019-05-28T08:37:21.194Z,22.15
2019-05-28T08:38:19.794Z,22.05
2019-05-28T08:39:18.349Z,22.21
2019-05-28T08:40:17.098Z,22.12
2019-05-28T08:41:15.654Z,22.05
2019-05-28T08:42:14.409Z,21.94
2019-05-28T08:43:13.012Z,21.83
2019-05-28T08:44:11.552Z,21.74
2019-05-28T08:45:10.097Z,21.29
2019-05-28T08:46:08.823Z,21.12
2019-05-28T08:47:07.401Z,21.19
2019-05-28T08:48:06.004Z,21.19
2019-05-28T08:49:04.548Z,21.27
2019-05-28T08:50:03.110Z,21.28
2019-05-28T08:51:01.645Z,21.42
2019-05-28T08:52:00.209Z,21.59
2019-05-28T08:52:58.915Z,21.67
2019-05-28T08:53:57.665Z,21.72
2019-05-28T08:54:56.276Z,21.92
2019-05-28T08:55:55.002Z,21.91
2019-05-28T08:56:53.639Z,21.98
2019-05-28T08:57:52.292Z,21.84
2019-05-28T08:58:50.912Z,21.84
2019-05-28T08:59:49.503Z,21.9
2019-05-28T09:00:48.102Z,22.24
2019-05-28T09:01:46.824Z,22.28
2019-05-28T09:02:45.390Z,22.51
2019-05-28T09:03:43.962Z,22.55
2019-05-28T09:04:42.751Z,22.54
2019-05-28T09:05:41.217Z,22.6
2019-05-28T09:06:39.801Z,22.54
2019-05-28T09:07:38.563Z,22.61
2019-05-28T09:08:39.551Z,22.8
2019-05-28T09:09:35.810Z,22.85
2019-05-28T09:12:15.929Z,22.7
2019-05-28T09:13:14.667Z,22.51
2019-05-28T09:14:13.205Z,22.54
2019-05-28T09:15:11.787Z,22.62
2019-05-28T09:16:10.385Z,22.61
2019-05-28T09:17:09.075Z,22.68
2019-05-28T09:18:07.692Z,22.65
2019-05-28T09:19:10.173Z,22.62
2019-05-28T09:20:05.186Z,22.55
2019-05-28T09:21:03.791Z,22.46
2019-05-28T09:24:30.735Z,22.45
2019-05-28T09:25:29.301Z,22.43
2019-05-28T09:28:50.912Z,22.17
2019-05-28T09:29:49.489Z,22.22
2019-05-28T09:30:48.425Z,22.22
2019-05-28T09:31:47.120Z,22.31
2019-05-28T09:32:45.701Z,22.51
2019-05-28T09:33:44.277Z,22.52
2019-05-28T09:34:42.991Z,22.31
2019-05-28T09:35:46.534Z,22.31
2019-05-28T09:36:40.147Z,22.14
2019-05-28T09:37:38.773Z,21.98
2019-05-28T09:38:37.321Z,21.94
2019-05-28T09:39:35.934Z,21.82
2019-05-28T09:40:48.859Z,22.05
2019-05-28T09:41:33.531Z,22.09
2019-05-28T09:42:32.545Z,21.94
2019-05-28T09:43:31.293Z,22.12
2019-05-28T09:44:29.849Z,22.17
2019-05-28T09:45:28.554Z,22.18
2019-05-28T09:46:27.191Z,22.31
2019-05-28T09:47:25.752Z,22.14
2019-05-28T09:48:24.582Z,21.94
2019-05-28T09:49:23.300Z,22.14
2019-05-28T09:50:30.345Z,22.15
2019-05-28T09:51:20.664Z,22.25
2019-05-28T09:52:19.251Z,22.47
2019-05-28T09:53:17.942Z,22.51
2019-05-28T09:54:16.595Z,22.31
2019-05-28T09:55:15.334Z,22.14
2019-05-28T09:56:13.889Z,22.06
2019-05-28T09:57:12.618Z,22.15
2019-05-28T09:58:11.396Z,22.49
2019-05-28T09:59:09.979Z,22.68
2019-05-28T10:00:08.687Z,22.76
2019-05-28T10:01:07.365Z,22.92
2019-05-28T10:02:05.980Z,23.01
2019-05-28T10:03:04.768Z,23.01
2019-05-28T10:04:03.655Z,23.12
2019-05-28T10:05:02.068Z,23.13
2019-05-28T10:06:15.436Z,22.79
2019-05-28T10:06:59.310Z,23.04
2019-05-28T10:07:57.873Z,22.97
2019-05-28T10:08:56.562Z,23
2019-05-28T10:09:55.190Z,23.07
2019-05-28T10:10:53.782Z,23.23
2019-05-28T10:11:52.549Z,23.32
2019-05-28T10:12:51.121Z,23.23
2019-05-28T10:13:49.620Z,23.4
2019-05-28T10:14:48.162Z,23.23
2019-05-28T10:15:46.741Z,22.98
2019-05-28T10:16:45.330Z,22.86
2019-05-28T10:17:43.914Z,22.61
2019-05-28T10:18:42.562Z,22.49
2019-05-28T10:19:41.264Z,22.61
2019-05-28T10:20:39.825Z,22.77
2019-05-28T10:21:38.500Z,22.9
2019-05-28T10:22:37.210Z,23.13
2019-05-28T10:23:35.892Z,22.98
2019-05-28T10:24:34.593Z,23
2019-05-28T10:25:33.227Z,22.83
2019-05-28T10:26:31.787Z,23
2019-05-28T10:27:30.667Z,23.01
2019-05-28T10:28:29.374Z,22.97
2019-05-28T10:29:28.084Z,22.7
2019-05-28T10:30:26.743Z,22.57
2019-05-28T10:31:25.496Z,22.51
2019-05-28T10:32:24.091Z,22.47
2019-05-28T10:33:22.713Z,22.58
2019-05-28T10:34:21.442Z,22.61
2019-05-28T10:35:20.004Z,22.85
2019-05-28T10:36:34.251Z,22.79
2019-05-28T10:37:17.216Z,22.82
2019-05-28T10:38:17.120Z,22.75
2019-05-28T10:39:14.406Z,22.67
2019-05-28T10:40:13.133Z,22.85
2019-05-28T10:41:11.707Z,22.94
2019-05-28T10:42:10.581Z,23.13
2019-05-28T10:43:09.142Z,22.97
2019-05-28T10:44:07.756Z,22.83
2019-05-28T10:45:06.521Z,22.75
2019-05-28T10:46:05.334Z,23.04
2019-05-28T10:47:03.855Z,23.12
2019-05-28T10:48:02.485Z,22.91
2019-05-28T10:49:01.122Z,22.98
2019-05-28T10:49:59.677Z,23.17
2019-05-28T10:50:58.272Z,23.35
2019-05-28T10:51:57.036Z,23.33
2019-05-28T10:52:55.637Z,23.13
2019-05-28T10:53:54.181Z,23.01
2019-05-28T10:54:53.011Z,22.85
2019-05-28T10:55:51.672Z,23.15
2019-05-28T10:56:50.250Z,23.15
2019-05-28T10:57:48.819Z,22.92
2019-05-28T10:58:47.378Z,22.75
2019-05-28T10:59:45.960Z,22.86
2019-05-28T11:00:44.584Z,22.79
2019-05-28T11:01:43.205Z,22.62
2019-05-28T11:02:41.844Z,22.62
2019-05-28T11:03:40.470Z,22.7
2019-05-28T11:04:39.095Z,22.51
2019-05-28T11:05:37.666Z,22.57
2019-05-28T11:06:50.753Z,22.57
2019-05-28T11:07:34.961Z,22.4
2019-05-28T11:08:33.529Z,22.52
2019-05-28T11:09:32.078Z,22.58
2019-05-28T11:10:30.835Z,22.58
2019-05-28T11:11:29.502Z,22.67
2019-05-28T11:12:28.155Z,22.98
2019-05-28T11:13:26.810Z,23.13
2019-05-28T11:14:25.393Z,23.09
2019-05-28T11:15:24.194Z,23.36
2019-05-28T11:16:22.530Z,23.4
2019-05-28T11:17:21.214Z,23.48
2019-05-28T11:18:19.789Z,23.57
2019-05-28T11:19:18.458Z,23.8
2019-05-28T11:20:17.202Z,23.48
2019-05-28T11:21:15.758Z,23.63
2019-05-28T11:22:14.465Z,23.2
2019-05-28T11:23:13.188Z,23.02
2019-05-28T11:24:11.722Z,23.12
2019-05-28T11:25:10.360Z,23.1
2019-05-28T11:26:09.060Z,23.27
2019-05-28T11:27:07.656Z,23.35
2019-05-28T11:28:06.253Z,23.27
2019-05-28T11:29:04.854Z,23.07
2019-05-28T11:30:03.435Z,23.12
2019-05-28T11:31:02.020Z,23.23
2019-05-28T11:32:00.567Z,23.32
2019-05-28T11:32:59.323Z,23.22
2019-05-28T11:33:57.895Z,23.16
2019-05-28T11:34:56.430Z,22.82
2019-05-28T11:35:55.003Z,22.51
2019-05-28T11:37:08.239Z,22.37
2019-05-28T11:37:52.253Z,22.46
2019-05-28T11:38:50.868Z,22.58
2019-05-28T11:39:49.464Z,22.61
2019-05-28T11:40:48.257Z,22.68
2019-05-28T11:41:46.868Z,22.67
2019-05-28T11:42:45.451Z,22.75
2019-05-28T11:43:44.094Z,22.68
2019-05-28T11:44:42.651Z,22.95
2019-05-28T11:45:41.191Z,22.86
2019-05-28T11:46:39.798Z,22.76
2019-05-28T11:47:38.475Z,22.88
2019-05-28T11:48:37.280Z,23.02
2019-05-28T11:49:35.979Z,23.1
2019-05-28T11:50:34.611Z,23.09
2019-05-28T11:51:33.174Z,23.02
2019-05-28T11:52:31.749Z,23.12
2019-05-28T11:53:30.302Z,23.12
2019-05-28T11:54:28.947Z,22.7
2019-05-28T11:55:27.515Z,22.42
2019-05-28T11:58:07.754Z,22.17
2019-05-28T11:59:06.479Z,22.2
2019-05-28T12:00:05.097Z,22.17
2019-05-28T12:01:03.661Z,22.14
2019-05-28T12:02:04.974Z,22.27
2019-05-28T12:03:01.130Z,22.64
2019-05-28T12:03:59.729Z,22.77
2019-05-28T12:04:58.239Z,22.75
2019-05-28T12:05:57.060Z,22.6
2019-05-28T12:06:55.670Z,22.54
2019-05-28T12:07:54.236Z,22.68
2019-05-28T12:08:52.811Z,22.65
2019-05-28T12:09:51.387Z,22.72
2019-05-28T12:10:50.113Z,22.67
2019-05-28T12:11:48.760Z,22.79
2019-05-28T12:12:47.636Z,22.75
2019-05-28T12:13:46.199Z,22.97
2019-05-28T12:14:44.942Z,22.77
2019-05-28T12:15:43.606Z,22.94
2019-05-28T12:16:42.360Z,23
2019-05-28T12:17:44.055Z,23.12
2019-05-28T12:18:39.550Z,23.2
2019-05-28T12:19:38.270Z,23.15
2019-05-28T12:20:37.031Z,23.17
2019-05-28T12:21:35.611Z,23.22
2019-05-28T12:22:34.357Z,23.16
2019-05-28T12:23:33.186Z,23.16
2019-05-28T12:24:31.791Z,22.92
2019-05-28T12:25:30.463Z,22.86
2019-05-28T12:26:29.840Z,22.83
2019-05-28T12:27:28.558Z,23.12
2019-05-28T12:28:37.358Z,23.22
2019-05-28T12:29:25.782Z,23.39
2019-05-28T12:30:24.457Z,23.2
2019-05-28T12:31:23.318Z,23.23
2019-05-28T12:34:03.604Z,23
2019-05-28T12:35:02.284Z,23.15
2019-05-28T12:36:00.930Z,23.25
2019-05-28T12:36:59.574Z,23.27
2019-05-28T12:37:58.134Z,23.33
2019-05-28T12:38:56.956Z,23.04
2019-05-28T12:39:55.555Z,23.09
2019-05-28T12:40:54.142Z,23.12
2019-05-28T12:42:01.373Z,23.23
2019-05-28T12:42:51.321Z,23.23
2019-05-28T12:43:49.944Z,23.35
2019-05-28T12:46:15.423Z,23.36
2019-05-28T12:47:14.931Z,23.43
2019-05-28T12:48:13.488Z,23.47
2019-05-28T12:49:11.449Z,23.36
2019-05-28T12:50:18.803Z,23.33
2019-05-28T12:51:08.684Z,23.17
2019-05-28T12:52:07.337Z,23.13
2019-05-28T12:53:05.889Z,23.12
2019-05-28T12:54:04.524Z,23.1
2019-05-28T12:55:03.161Z,23.01
2019-05-28T12:56:01.775Z,23.13
2019-05-28T12:57:00.449Z,23.16
2019-05-28T12:57:59.194Z,23.36
2019-05-28T12:58:57.754Z,23.1
2019-05-28T12:59:56.821Z,23.25
2019-05-28T13:00:54.941Z,23.22
2019-05-28T13:01:53.498Z,23.09
2019-05-28T13:02:52.075Z,22.95
2019-05-28T13:03:51.973Z,23.02
2019-05-28T13:04:49.417Z,23.2
2019-05-28T13:05:48.587Z,23.23
2019-05-28T13:06:47.231Z,23.22
2019-05-28T13:08:03.580Z,23.09
2019-05-28T13:08:44.750Z,23.23
2019-05-28T13:09:43.529Z,23.23
2019-05-28T13:10:42.074Z,23.22
2019-05-28T13:11:40.804Z,23.16
2019-05-28T13:12:39.589Z,23.16
2019-05-28T13:13:38.237Z,23.19
2019-05-28T13:14:36.930Z,23.13
2019-05-28T13:15:35.601Z,23.1
2019-05-28T13:16:34.344Z,23.2
2019-05-28T13:17:33.116Z,23.15
2019-05-28T13:18:31.791Z,23.2
2019-05-28T13:19:30.406Z,23.35
2019-05-28T13:20:29.840Z,23.33